Time;durP1;ratioP1;P1;durP2;ratioP2;P2;SDS_P1;SDS_P2;PMS_P1;PMS_P2;Temp;Humidity;BMP_temperature;BMP_pressure;BME280_temperature;BME280_humidity;BME280_pressure;Samples;Min_cycle;Max_cycle;Signal;HPM_P1;HPM_P2
2024/01/12 00:01:20;;;;;;;9.48;6.93;;;;;;;;;;5072515;28;20456;-28
2024/01/12 00:03:47;;;;;;;9.02;6.35;;;18.40;56.60;;;;;;5071034;28;20041;-29
2024/01/12 00:06:13;;;;;;;8.05;6.57;;;18.40;72.90;;;;;;5072038;28;20056;-27
2024/01/12 00:08:40;;;;;;;9.65;6.40;;;;;;;;;;5072589;28;20045;-28
2024/01/12 00:11:09;;;;;;;8.40;6.18;;;18.40;42.00;;;;;;5072545;28;20060;-28
2024/01/12 00:13:36;;;;;;;7.68;6.22;;;;;;;;;;5072383;28;20048;-28
2024/01/12 00:16:06;;;;;;;8.27;6.10;;;;;;;;;;5071581;28;20048;-33
2024/01/12 00:18:33;;;;;;;8.65;6.28;;;;;;;;;;5072416;28;20140;-29
2024/01/12 00:21:00;;;;;;;8.93;6.75;;;;;;;;;;5071695;28;20055;-36
2024/01/12 00:23:27;;;;;;;8.07;6.07;;;;;;;;;;5072128;28;20547;-31
2024/01/12 00:25:58;;;;;;;8.98;6.55;;;;;;;;;;5071493;28;20083;-35
2024/01/12 00:28:27;;;;;;;8.73;6.13;;;;;;;;;;5072123;28;20093;-31
2024/01/12 00:30:54;;;;;;;8.65;5.95;;;;;;;;;;5072251;28;20146;-34
2024/01/12 00:33:22;;;;;;;8.32;6.43;;;;;;;;;;5072014;28;20109;-34
2024/01/12 00:35:49;;;;;;;10.23;5.95;;;;;;;;;;5071691;28;20404;-35
2024/01/12 00:38:16;;;;;;;8.80;5.93;;;;;;;;;;5054836;28;20474;-34
2024/01/12 00:40:43;;;;;;;7.55;5.88;;;;;;;;;;5051946;28;20110;-35
2024/01/12 00:43:10;;;;;;;8.35;6.07;;;;;;;;;;5051717;28;20052;-36
2024/01/12 00:45:39;;;;;;;9.88;6.78;;;18.10;43.10;;;;;;5051744;28;20053;-36
2024/01/12 00:48:07;;;;;;;8.43;5.57;;;18.20;43.10;;;;;;5051973;28;20052;-30
2024/01/12 00:50:34;;;;;;;9.45;5.43;;;;;;;;;;5051917;28;20127;-27
2024/01/12 00:53:01;;;;;;;10.32;6.07;;;;;;;;;;5052921;28;20512;-35
2024/01/12 00:55:29;;;;;;;10.77;6.25;;;;;;;;;;5051186;28;20049;-30
2024/01/12 00:57:56;;;;;;;8.90;5.90;;;;;;;;;;5052002;28;20049;-28
2024/01/12 01:00:23;;;;;;;10.32;5.63;;;;;;;;;;5051532;28;20110;-28
2024/01/12 01:02:51;;;;;;;8.98;5.68;;;17.90;44.10;;;;;;5051778;28;20052;-34
2024/01/12 01:05:18;;;;;;;10.50;6.55;;;;;;;;;;5051251;28;20061;-34
2024/01/12 01:07:45;;;;;;;8.10;5.75;;;18.90;75.40;;;;;;5051585;28;20053;-35
2024/01/12 01:10:13;;;;;;;9.32;5.90;;;;;;;;;;5052747;28;20083;-34
2024/01/12 01:12:40;;;;;;;8.10;5.60;;;;;;;;;;5051573;28;20072;-33
2024/01/12 01:15:07;;;;;;;9.57;6.05;;;;;;;;;;5052443;28;20079;-33
2024/01/12 01:17:35;;;;;;;10.80;6.18;;;;;;;;;;5071495;28;20052;-33
2024/01/12 01:20:03;;;;;;;12.43;7.30;;;17.90;42.80;;;;;;5071530;28;20543;-37
2024/01/12 01:22:33;;;;;;;8.13;5.38;;;17.70;74.40;;;;;;5071516;28;20086;-37
2024/01/12 01:25:00;;;;;;;12.98;6.53;;;;;;;;;;5071737;28;20056;-27
2024/01/12 01:27:27;;;;;;;8.35;5.57;;;;;;;;;;5055198;28;20085;-28
2024/01/12 01:29:54;;;;;;;8.48;5.60;;;;;;;;;;5051253;28;20045;-28
2024/01/12 01:32:22;;;;;;;10.23;6.18;;;;;;;;;;5051937;28;20153;-28
2024/01/12 01:34:49;;;;;;;10.25;6.15;;;;;;;;;;5055274;28;20456;-28
2024/01/12 01:37:17;;;;;;;7.78;5.53;;;;;;;;;;5066399;28;20098;-34
2024/01/12 01:39:44;;;;;;;10.98;5.57;;;;;;;;;;5075221;28;20044;-34
2024/01/12 01:42:11;;;;;;;8.40;5.13;;;;;;;;;;5074880;28;20053;-32
2024/01/12 01:44:39;;;;;;;12.15;6.10;;;;;;;;;;5054874;28;20099;-34
2024/01/12 01:47:06;;;;;;;8.15;5.60;;;;;;;;;;5055067;28;20567;-33
2024/01/12 01:49:32;;;;;;;12.60;6.70;;;;;;;;;;5054844;28;20087;-35
2024/01/12 01:51:59;;;;;;;8.27;5.13;;;;;;;;;;5055096;28;20051;-34
2024/01/12 01:54:28;;;;;;;8.93;5.30;;;;;;;;;;5054875;28;20049;-28
2024/01/12 01:56:55;;;;;;;7.95;5.07;;;;;;;;;;5055011;28;20044;-28
2024/01/12 01:59:22;;;;;;;9.10;5.00;;;;;;;;;;5055683;28;20607;-28
2024/01/12 02:01:49;;;;;;;8.50;5.30;;;;;;;;;;5054859;28;20045;-28
2024/01/12 02:04:16;;;;;;;7.15;4.68;;;;;;;;;;5054795;28;20049;-31
2024/01/12 02:06:43;;;;;;;8.52;4.90;;;;;;;;;;5054310;28;20099;-28
2024/01/12 02:09:10;;;;;;;6.68;4.40;;;;;;;;;;5054793;28;20494;-31
2024/01/12 02:11:38;;;;;;;8.52;4.82;;;18.10;43.80;;;;;;5054700;28;20057;-28
2024/01/12 02:14:08;;;;;;;7.00;4.47;;;;;;;;;;5056727;28;20123;-28
2024/01/12 02:16:35;;;;;;;6.68;4.43;;;;;;;;;;5070363;28;20071;-28
2024/01/12 02:19:02;;;;;;;5.97;4.10;;;;;;;;;;5074231;28;20714;-34
2024/01/12 02:21:31;;;;;;;6.35;4.20;;;;;;;;;;5074786;28;20052;-34
2024/01/12 02:23:58;;;;;;;7.43;4.28;;;;;;;;;;5074369;28;20102;-34
2024/01/12 02:26:25;;;;;;;5.50;3.85;;;18.30;55.90;;;;;;5073832;28;20045;-37
2024/01/12 02:28:52;;;;;;;5.68;3.78;;;;;;;;;;5074279;28;20102;-36
2024/01/12 02:31:19;;;;;;;5.30;3.47;;;;;;;;;;5056523;28;20053;-32
2024/01/12 02:33:50;;;;;;;6.60;4.05;;;;;;;;;;5054307;28;20083;-28
2024/01/12 02:36:17;;;;;;;5.38;3.60;;;;;;;;;;5058222;28;20068;-27
2024/01/12 02:38:49;;;;;;;6.85;3.50;;;18.50;41.80;;;;;;5073961;28;20102;-28
2024/01/12 02:41:16;;;;;;;5.80;3.33;;;;;;;;;;5074248;28;20491;-28
2024/01/12 02:43:43;;;;;;;4.68;3.03;;;;;;;;;;5073206;28;20107;-28
2024/01/12 02:46:10;;;;;;;5.75;3.28;;;18.50;58.90;;;;;;5068600;28;20090;-34
2024/01/12 02:48:37;;;;;;;4.68;3.10;;;;;;;;;;5054313;28;20057;-36
2024/01/12 02:51:04;;;;;;;4.88;2.85;;;;;;;;;;5053679;28;20529;-34
2024/01/12 02:53:32;;;;;;;3.67;2.65;;;;;;;;;;5054136;28;20053;-31
2024/01/12 02:56:00;;;;;;;4.18;2.67;;;18.70;43.00;;;;;;5053543;28;20041;-37
2024/01/12 02:58:27;;;;;;;4.45;2.75;;;;;;;;;;5053821;28;20053;-34
2024/01/12 03:00:54;;;;;;;4.53;2.70;;;;;;;;;;5053491;28;20049;-31
2024/01/12 03:03:21;;;;;;;4.97;2.90;;;18.80;74.90;;;;;;5065956;28;20049;-33
2024/01/12 03:05:49;;;;;;;3.83;2.20;;;18.80;43.70;;;;;;5073460;28;20063;-31
2024/01/12 03:08:16;;;;;;;4.75;2.20;;;;;;;;;;5073656;28;20044;-38
2024/01/12 03:10:43;;;;;;;5.00;2.67;;;;;;;;;;5073326;28;20041;-34
2024/01/12 03:13:11;;;;;;;6.03;2.70;;;18.90;43.90;;;;;;5073666;28;20485;-33
2024/01/12 03:15:38;;;;;;;5.85;3.13;;;;;;;;;;5072980;28;20056;-35
2024/01/12 03:18:06;;;;;;;4.65;2.33;;;;;;;;;;5073407;28;20106;-28
2024/01/12 03:20:33;;;;;;;3.65;2.10;;;;;;;;;;5057556;28;20440;-31
2024/01/12 03:23:00;;;;;;;3.90;1.95;;;;;;;;;;5053335;28;20049;-28
2024/01/12 03:25:27;;;;;;;4.10;2.42;;;;;;;;;;5056742;28;20178;-28
2024/01/12 03:27:54;;;;;;;4.47;2.60;;;;;;;;;;5073516;28;20056;-34
2024/01/12 03:30:22;;;;;;;4.20;2.30;;;19.00;43.70;;;;;;5073164;28;20052;-36
2024/01/12 03:32:49;;;;;;;2.95;2.00;;;;;;;;;;5073365;28;20056;-33
2024/01/12 03:35:17;;;;;;;4.03;2.10;;;;;;;;;;5072485;28;20048;-28
2024/01/12 03:37:44;;;;;;;2.90;1.90;;;;;;;;;;5055486;28;20457;-28
2024/01/12 03:40:11;;;;;;;3.00;1.92;;;19.00;42.60;;;;;;5052869;28;20044;-27
2024/01/12 03:42:38;;;;;;;2.28;1.63;;;;;;;;;;5053014;28;20052;-28
2024/01/12 03:45:06;;;;;;;5.80;2.50;;;19.00;42.90;;;;;;5052758;28;20049;-34
2024/01/12 03:47:35;;;;;;;2.60;1.83;;;;;;;;;;5052820;28;20113;-35
2024/01/12 03:50:02;;;;;;;6.07;2.13;;;;;;;;;;5052882;28;20564;-28
2024/01/12 03:52:29;;;;;;;3.13;1.80;;;;;;;;;;5057005;28;20040;-27
2024/01/12 03:54:57;;;;;;;4.00;1.88;;;;;;;;;;5052099;28;20053;-34
2024/01/12 03:57:24;;;;;;;3.33;2.28;;;;;;;;;;5052361;28;20494;-33
2024/01/12 03:59:51;;;;;;;2.53;1.63;;;;;;;;;;5052735;28;20098;-36
2024/01/12 04:02:18;;;;;;;3.22;1.75;;;;;;;;;;5052502;28;20095;-33
2024/01/12 04:04:46;;;;;;;2.70;1.75;;;19.00;43.60;;;;;;5050973;28;20060;-35
2024/01/12 04:07:13;;;;;;;3.20;1.98;;;;;;;;;;5059244;28;20040;-28
2024/01/12 04:09:40;;;;;;;3.53;2.08;;;;;;;;;;5066612;28;20049;-28
2024/01/12 04:12:08;;;;;;;3.58;1.80;;;;;;;;;;5052575;28;20048;-27
2024/01/12 04:14:35;;;;;;;3.33;2.03;;;;;;;;;;5052309;28;20099;-28
2024/01/12 04:17:02;;;;;;;4.63;1.80;;;;;;;;;;5069013;28;20040;-33
2024/01/12 04:19:30;;;;;;;3.58;1.67;;;;;;;;;;5072199;28;20044;-28
2024/01/12 04:21:58;;;;;;;3.42;1.48;;;;;;;;;;5072270;28;20056;-28
2024/01/12 04:24:25;;;;;;;3.17;1.73;;;;;;;;;;5065441;28;20060;-35
2024/01/12 04:26:52;;;;;;;3.80;1.88;;;;;;;;;;5051937;28;20045;-31
2024/01/12 04:29:19;;;;;;;2.78;1.60;;;;;;;;;;5052123;28;20061;-28
2024/01/12 04:31:47;;;;;;;4.28;2.00;;;;;;;;;;5052052;28;20498;-30
2024/01/12 04:34:14;;;;;;;5.22;2.00;;;;;;;;;;5052017;28;20098;-28
2024/01/12 04:36:41;;;;;;;5.68;2.10;;;;;;;;;;5058419;28;20106;-32
2024/01/12 04:39:09;;;;;;;3.70;1.98;;;;;;;;;;5071909;28;20044;-28
2024/01/12 04:41:36;;;;;;;2.28;1.48;;;;;;;;;;5061749;28;20448;-34
2024/01/12 04:44:03;;;;;;;9.30;5.07;;;19.10;72.20;;;;;;5051794;28;20053;-28
2024/01/12 04:46:30;;;;;;;5.40;3.15;;;;;;;;;;5051722;28;20094;-27
2024/01/12 04:48:57;;;;;;;3.03;1.60;;;19.20;73.60;;;;;;5051935;28;20539;-28
2024/01/12 04:51:24;;;;;;;2.95;1.30;;;;;;;;;;5052186;28;20122;-28
2024/01/12 04:53:52;;;;;;;6.28;2.20;;;;;;;;;;5052016;28;20498;-28
2024/01/12 04:56:20;;;;;;;3.45;1.60;;;;;;;;;;5051673;28;20823;-28
2024/01/12 04:58:47;;;;;;;4.28;1.88;;;;;;;;;;5053084;28;20552;-34
2024/01/12 05:01:15;;;;;;;3.65;1.60;;;;;;;;;;5051715;28;20045;-32
2024/01/12 05:03:42;;;;;;;6.90;2.00;;;;;;;;;;5061096;28;20541;-35
2024/01/12 05:06:09;;;;;;;3.97;1.90;;;;;;;;;;5071552;28;20084;-30
2024/01/12 05:08:37;;;;;;;3.20;1.60;;;;;;;;;;5067720;28;20040;-34
2024/01/12 05:11:04;;;;;;;3.58;1.58;;;;;;;;;;5060082;28;20045;-31
2024/01/12 05:13:32;;;;;;;2.40;1.27;;;;;;;;;;5062286;28;20044;-35
2024/01/12 05:15:59;;;;;;;2.33;1.20;;;;;;;;;;5069347;28;20048;-28
2024/01/12 05:18:27;;;;;;;1.77;1.33;;;;;;;;;;5071503;28;20191;-29
2024/01/12 05:20:54;;;;;;;2.92;1.30;;;;;;;;;;5071706;28;20049;-27
2024/01/12 05:23:21;;;;;;;2.83;1.30;;;;;;;;;;5071748;28;20049;-34
2024/01/12 05:25:49;;;;;;;2.05;1.30;;;;;;;;;;5071152;28;20052;-28
2024/01/12 05:28:16;;;;;;;2.40;1.30;;;;;;;;;;5071739;28;20090;-31
2024/01/12 05:30:44;;;;;;;2.55;1.30;;;;;;;;;;5069480;28;20072;-28
2024/01/12 05:33:11;;;;;;;1.58;1.08;;;;;;;;;;5069705;28;20386;-29
2024/01/12 05:35:39;;;;;;;2.15;1.30;;;;;;;;;;5071049;28;20094;-35
2024/01/12 05:38:06;;;;;;;2.05;1.30;;;;;;;;;;5071112;28;20048;-37
2024/01/12 05:40:33;;;;;;;2.08;1.23;;;;;;;;;;5071536;28;20045;-30
2024/01/12 05:43:00;;;;;;;2.30;1.48;;;;;;;;;;5071527;28;20044;-33
2024/01/12 05:45:27;;;;;;;3.30;1.42;;;19.30;74.60;;;;;;5070991;28;20059;-38
2024/01/12 05:47:55;;;;;;;2.42;1.40;;;19.00;43.80;;;;;;5065651;28;20608;-36
2024/01/12 05:50:22;;;;;;;3.22;1.45;;;;;;;;;;5051470;28;20102;-28
2024/01/12 05:52:49;;;;;;;1.83;1.27;;;;;;;;;;5051324;28;20048;-28
2024/01/12 05:55:17;;;;;;;6.45;3.65;;;;;;;;;;5050990;28;20057;-27
2024/01/12 05:57:44;;;;;;;2.15;1.40;;;;;;;;;;5051286;28;20057;-34
2024/01/12 06:00:12;;;;;;;2.70;1.13;;;19.10;42.20;;;;;;5062327;28;20502;-28
2024/01/12 06:02:39;;;;;;;3.10;1.50;;;;;;;;;;5071298;28;20094;-35
2024/01/12 06:05:08;;;;;;;2.58;1.25;;;19.00;43.90;;;;;;5067576;28;20494;-33
2024/01/12 06:07:35;;;;;;;4.97;1.60;;;;;;;;;;5070767;28;20048;-36
2024/01/12 06:10:02;;;;;;;2.83;1.58;;;;;;;;;;5071142;28;20048;-28
2024/01/12 06:12:29;;;;;;;3.00;1.30;;;;;;;;;;5071230;28;20056;-35
2024/01/12 06:14:56;;;;;;;5.88;2.17;;;;;;;;;;5071019;28;20460;-28
2024/01/12 06:17:24;;;;;;;4.65;1.67;;;;;;;;;;5070885;28;20106;-31
2024/01/12 06:19:51;;;;;;;2.65;1.40;;;;;;;;;;5073835;28;20049;-28
2024/01/12 06:22:19;;;;;;;4.82;1.80;;;18.90;43.90;;;;;;5056295;28;20056;-31
2024/01/12 06:24:46;;;;;;;1.67;1.25;;;;;;;;;;5054550;28;20049;-32
2024/01/12 06:27:13;;;;;;;2.60;1.33;;;;;;;;;;5054208;28;20103;-28
2024/01/12 06:29:40;;;;;;;2.15;1.33;;;;;;;;;;5054812;28;20045;-33
2024/01/12 06:32:07;;;;;;;2.78;1.33;;;;;;;;;;5054460;28;20464;-27
2024/01/12 06:34:34;;;;;;;2.40;1.33;;;;;;;;;;5054284;28;20094;-32
2024/01/12 06:37:02;;;;;;;3.55;1.23;;;;;;;;;;5060670;28;20044;-28
2024/01/12 06:39:30;;;;;;;2.58;1.08;;;;;;;;;;5057882;28;20095;-28
2024/01/12 06:41:58;;;;;;;2.05;1.08;;;;;;;;;;5054432;28;20130;-28
2024/01/12 06:44:25;;;;;;;1.92;1.20;;;;;;;;;;5054248;28;20056;-28
2024/01/12 06:46:53;;;;;;;3.13;1.23;;;;;;;;;;5054044;28;20095;-33
2024/01/12 06:49:20;;;;;;;2.28;1.30;;;;;;;;;;5052936;28;20504;-27
2024/01/12 06:51:47;;;;;;;1.85;1.15;;;;;;;;;;5054099;28;20103;-30
2024/01/12 06:54:14;;;;;;;1.80;1.17;;;;;;;;;;5060126;28;20072;-35
2024/01/12 06:56:42;;;;;;;2.53;1.05;;;19.00;43.90;;;;;;5073790;28;20058;-35
2024/01/12 06:59:10;;;;;;;2.17;1.10;;;;;;;;;;5074012;28;20097;-36
2024/01/12 07:01:37;;;;;;;2.80;1.33;;;;;;;;;;5074214;28;20076;-30
2024/01/12 07:04:04;;;;;;;2.75;1.40;;;;;;;;;;5073894;28;20056;-28
2024/01/12 07:06:32;;;;;;;2.53;1.30;;;;;;;;;;5073556;28;20060;-35
2024/01/12 07:08:59;;;;;;;3.50;1.30;;;;;;;;;;5073491;28;20056;-36
2024/01/12 07:11:26;;;;;;;2.47;1.35;;;;;;;;;;5057403;28;20049;-35
2024/01/12 07:13:55;;;;;;;1.88;1.10;;;19.00;43.60;;;;;;5053857;28;20103;-36
2024/01/12 07:16:22;;;;;;;3.25;1.55;;;;;;;;;;5064790;28;20056;-31
2024/01/12 07:18:49;;;;;;;2.92;1.42;;;;;;;;;;5073397;28;20493;-28
2024/01/12 07:21:16;;;;;;;2.92;1.42;;;;;;;;;;5073473;28;20102;-29
2024/01/12 07:23:43;;;;;;;3.03;1.42;;;;;;;;;;5073342;28;20056;-30
2024/01/12 07:26:10;;;;;;;3.83;1.70;;;;;;;;;;5072189;28;20053;-28
2024/01/12 07:28:38;;;;;;;3.45;2.20;;;;;;;;;;5053600;28;20053;-32
2024/01/12 07:31:06;;;;;;;5.95;2.00;;;19.10;43.90;;;;;;5052363;28;20461;-37
2024/01/12 07:33:33;;;;;;;1.88;1.38;;;;;;;;;;5052905;28;20049;-33
2024/01/12 07:36:01;;;;;;;5.53;1.90;;;;;;;;;;5059044;28;20095;-27
2024/01/12 07:38:28;;;;;;;2.33;1.20;;;;;;;;;;5072752;28;20452;-27
2024/01/12 07:40:55;;;;;;;5.43;2.00;;;;;;;;;;5073039;28;20055;-27
2024/01/12 07:43:22;;;;;;;2.05;1.30;;;;;;;;;;5071557;28;20531;-29
2024/01/12 07:45:49;;;;;;;2.00;1.20;;;;;;;;;;5072745;28;20087;-27
2024/01/12 07:48:18;;;;;;;3.72;1.52;;;;;;;;;;5072399;28;20076;-30
2024/01/12 07:50:45;;;;;;;4.20;1.23;;;;;;;;;;5061965;28;20040;-27
2024/01/12 07:53:12;;;;;;;6.78;1.30;;;;;;;;;;5062782;28;20053;-27
2024/01/12 07:55:39;;;;;;;3.38;1.23;;;;;;;;;;5058912;28;20053;-36
2024/01/12 07:58:07;;;;;;;3.42;1.45;;;;;;;;;;5052899;28;20411;-34
2024/01/12 08:00:34;;;;;;;2.88;1.20;;;;;;;;;;5053810;28;20505;-34
2024/01/12 08:03:02;;;;;;;5.10;1.48;;;;;;;;;;5053033;28;20095;-32
2024/01/12 08:05:31;;;;;;;4.78;1.42;;;;;;;;;;5052274;28;20513;-34
2024/01/12 08:07:58;;;;;;;3.75;1.60;;;;;;;;;;5052509;28;20509;-27
2024/01/12 08:10:25;;;;;;;3.03;1.60;;;;;;;;;;5052722;28;20049;-27
2024/01/12 08:12:52;;;;;;;2.22;1.23;;;;;;;;;;5052605;28;20053;-27
2024/01/12 08:15:19;;;;;;;3.25;1.45;;;;;;;;;;5056322;28;20106;-31
2024/01/12 08:17:46;;;;;;;4.35;1.40;;;;;;;;;;5072476;28;20455;-27
2024/01/12 08:20:14;;;;;;;2.97;1.58;;;;;;;;;;5072288;28;20046;-29
2024/01/12 08:22:42;;;;;;;3.30;1.55;;;19.50;44.30;;;;;;5072274;28;20083;-37
2024/01/12 08:25:09;;;;;;;4.10;1.40;;;;;;;;;;5068883;28;20049;-35
2024/01/12 08:27:36;;;;;;;2.60;1.20;;;;;;;;;;5060097;28;20049;-27
2024/01/12 08:30:03;;;;;;;4.15;1.63;;;;;;;;;;5061784;28;20091;-27
2024/01/12 08:32:31;;;;;;;3.33;1.55;;;;;;;;;;5061473;28;20052;-27
2024/01/12 08:34:58;;;;;;;2.35;1.35;;;;;;;;;;5060180;28;20045;-29
2024/01/12 08:37:25;;;;;;;4.65;1.40;;;;;;;;;;5057821;28;20044;-28
2024/01/12 08:39:53;;;;;;;3.85;1.35;;;;;;;;;;5060324;28;20552;-29
2024/01/12 08:42:20;;;;;;;1.73;1.27;;;;;;;;;;5061075;28;20091;-33
2024/01/12 08:44:48;;;;;;;2.13;1.20;;;;;;;;;;5059856;28;20049;-32
2024/01/12 08:47:15;;;;;;;2.92;1.50;;;;;;;;;;5057938;28;20043;-27
2024/01/12 08:49:42;;;;;;;2.55;1.35;;;;;;;;;;5062321;28;20060;-31
2024/01/12 08:52:10;;;;;;;2.55;1.40;;;;;;;;;;5058408;28;20456;-27
2024/01/12 08:54:36;;;;;;;3.20;1.55;;;20.00;64.80;;;;;;5055728;28;20068;-35
2024/01/12 08:57:05;;;;;;;2.10;1.25;;;19.80;44.10;;;;;;5056024;28;20052;-35
2024/01/12 08:59:32;;;;;;;3.03;1.40;;;;;;;;;;5058080;28;20053;-26
2024/01/12 09:01:59;;;;;;;3.78;1.55;;;;;;;;;;5066081;28;20048;-27
2024/01/12 09:04:28;;;;;;;3.55;1.27;;;;;;;;;;5062187;28;20118;-30
2024/01/12 09:06:55;;;;;;;2.58;1.40;;;;;;;;;;5051565;28;20084;-31
2024/01/12 09:09:22;;;;;;;2.88;1.58;;;;;;;;;;5051504;28;20053;-36
2024/01/12 09:11:49;;;;;;;2.95;1.40;;;;;;;;;;5051824;28;20049;-32
2024/01/12 09:14:17;;;;;;;2.95;1.30;;;20.00;44.00;;;;;;5051708;28;20457;-33
2024/01/12 09:16:45;;;;;;;3.90;1.60;;;;;;;;;;5066028;28;20048;-28
2024/01/12 09:19:12;;;;;;;5.22;1.90;;;;;;;;;;5071672;28;20398;-33
2024/01/12 09:21:39;;;;;;;3.65;1.60;;;;;;;;;;5071448;28;20105;-34
2024/01/12 09:24:06;;;;;;;2.92;1.40;;;;;;;;;;5071959;28;20145;-27
2024/01/12 09:26:34;;;;;;;2.20;1.20;;;;;;;;;;5049950;28;20498;-33
2024/01/12 09:29:01;;;;;;;3.80;1.05;;;;;;;;;;5053593;28;20048;-37
2024/01/12 09:31:29;;;;;;;3.72;1.50;;;;;;;;;;5057832;28;20091;-28
2024/01/12 09:33:58;;;;;;;2.47;1.20;;;;;;;;;;5060036;28;20048;-27
2024/01/12 09:36:24;;;;;;;3.95;1.58;;;20.30;74.20;;;;;;5058194;28;20123;-33
2024/01/12 09:38:53;;;;;;;3.20;1.42;;;;;;;;;;5061452;28;20041;-33
2024/01/12 09:41:22;;;;;;;2.08;1.10;;;;;;;;;;5059844;28;20049;-31
2024/01/12 09:43:49;;;;;;;2.13;1.20;;;;;;;;;;5060847;28;20470;-27
2024/01/12 09:46:16;;;;;;;4.50;1.58;;;;;;;;;;5059362;28;20048;-31
2024/01/12 09:48:44;;;;;;;2.03;1.10;;;;;;;;;;5060315;28;20094;-33
2024/01/12 09:51:11;;;;;;;2.95;1.45;;;;;;;;;;5060228;28;20048;-31
2024/01/12 09:53:39;;;;;;;2.97;1.40;;;;;;;;;;5060789;28;20090;-28
2024/01/12 09:56:06;;;;;;;2.58;1.35;;;;;;;;;;5064604;28;20428;-35
2024/01/12 09:58:33;;;;;;;4.43;1.33;;;;;;;;;;5065356;28;20502;-28
2024/01/12 10:01:00;;;;;;;2.05;1.30;;;;;;;;;;5054598;28;20045;-28
2024/01/12 10:03:28;;;;;;;2.15;1.23;;;;;;;;;;5054491;28;20053;-27
2024/01/12 10:05:56;;;;;;;2.78;1.25;;;;;;;;;;5054294;28;20060;-32
2024/01/12 10:08:23;;;;;;;2.70;1.42;;;20.50;74.40;;;;;;5063885;28;20079;-36
2024/01/12 10:10:51;;;;;;;2.33;1.20;;;20.50;73.10;;;;;;5064098;28;20097;-33
2024/01/12 10:13:18;;;;;;;3.83;1.35;;;;;;;;;;5065294;28;20090;-28
2024/01/12 10:15:45;;;;;;;2.67;1.58;;;;;;;;;;5061009;28;20045;-34
2024/01/12 10:18:12;;;;;;;3.10;1.50;;;;;;;;;;5062570;28;20089;-36
2024/01/12 10:20:40;;;;;;;3.10;1.42;;;;;;;;;;5064230;28;20049;-34
2024/01/12 10:23:09;;;;;;;3.45;1.40;;;20.60;43.30;;;;;;5063195;28;20448;-30
2024/01/12 10:25:36;;;;;;;2.97;1.30;;;;;;;;;;5061962;28;20085;-27
2024/01/12 10:28:03;;;;;;;2.75;1.30;;;;;;;;;;5054470;28;20088;-30
2024/01/12 10:30:32;;;;;;;3.35;1.75;;;;;;;;;;5054311;28;20114;-30
2024/01/12 10:33:01;;;;;;;2.85;1.40;;;;;;;;;;5059797;28;20047;-30
2024/01/12 10:35:28;;;;;;;2.55;1.23;;;;;;;;;;5054039;28;20041;-31
2024/01/12 10:37:55;;;;;;;2.65;1.20;;;;;;;;;;5071171;28;20048;-35
2024/01/12 10:40:23;;;;;;;3.70;1.30;;;;;;;;;;5062766;28;20053;-32
2024/01/12 10:42:51;;;;;;;2.88;1.40;;;;;;;;;;5074164;28;20048;-33
2024/01/12 10:45:20;;;;;;;3.13;1.50;;;;;;;;;;5073237;28;20109;-31
2024/01/12 10:47:49;;;;;;;3.20;1.60;;;;;;;;;;5073151;28;20084;-33
2024/01/12 10:50:16;;;;;;;2.58;1.23;;;;;;;;;;5073362;28;20056;-33
2024/01/12 10:52:46;;;;;;;3.47;1.40;;;;;;;;;;5073306;28;20080;-34
2024/01/12 10:55:15;;;;;;;3.85;1.40;;;20.90;43.00;;;;;;5073074;28;20084;-36
2024/01/12 10:57:44;;;;;;;2.13;1.25;;;;;;;;;;5073852;28;20461;-31
2024/01/12 11:00:11;;;;;;;3.17;1.20;;;;;;;;;;5074335;28;20080;-28
2024/01/12 11:02:38;;;;;;;3.10;1.42;;;20.10;54.80;;;;;;5073933;28;20052;-31
2024/01/12 11:05:07;;;;;;;3.53;1.50;;;;;;;;;;5071647;28;20091;-29
2024/01/12 11:07:34;;;;;;;3.60;1.15;;;;;;;;;;5073615;28;20045;-28
2024/01/12 11:10:01;;;;;;;2.88;1.50;;;;;;;;;;5073607;28;20048;-28
2024/01/12 11:12:31;;;;;;;3.40;1.52;;;;;;;;;;5073897;28;20052;-36
2024/01/12 11:14:59;;;;;;;2.92;1.30;;;;;;;;;;5072322;28;20051;-36
2024/01/12 11:17:28;;;;;;;3.45;1.50;;;21.00;42.90;;;;;;5053569;28;20057;-28
2024/01/12 11:20:04;;;;;;;2.95;1.17;;;;;;;;;;5053768;28;20410;-29
2024/01/12 11:22:31;;;;;;;3.88;1.55;;;;;;;;;;5053399;28;20056;-32
2024/01/12 11:24:58;;;;;;;3.70;1.27;;;;;;;;;;5053463;28;20053;-28
2024/01/12 11:27:31;;;;;;;2.30;1.40;;;;;;;;;;5052967;28;20049;-28
2024/01/12 11:30:01;;;;;;;4.93;1.88;;;;;;;;;;5053558;28;20048;-35
2024/01/12 11:32:28;;;;;;;2.70;1.70;;;;;;;;;;5053311;28;20498;-34
2024/01/12 11:35:09;;;;;;;2.55;1.35;;;21.10;42.50;;;;;;5053357;28;20128;-32
2024/01/12 11:37:37;;;;;;;2.35;1.40;;;;;;;;;;5066927;28;20414;-28
2024/01/12 11:40:09;;;;;;;2.67;1.25;;;21.10;41.20;;;;;;5073435;28;20113;-34
2024/01/12 11:42:37;;;;;;;2.67;1.45;;;;;;;;;;5073211;28;20446;-33
2024/01/12 11:45:07;;;;;;;5.15;2.22;;;;;;;;;;5073024;28;20127;-28
2024/01/12 11:47:34;;;;;;;5.32;1.98;;;;;;;;;;5072759;28;20059;-36
2024/01/12 11:50:03;;;;;;;3.22;1.65;;;;;;;;;;5073212;28;20630;-27
2024/01/12 11:52:30;;;;;;;3.75;1.70;;;;;;;;;;5072888;28;20094;-31
2024/01/12 11:54:58;;;;;;;3.00;1.42;;;;;;;;;;5072929;28;20058;-33
2024/01/12 11:57:26;;;;;;;2.90;1.40;;;;;;;;;;5072860;28;20056;-28
2024/01/12 11:59:55;;;;;;;2.08;1.20;;;;;;;;;;5072734;28;20048;-28
2024/01/12 12:02:23;;;;;;;4.70;1.42;;;21.20;43.10;;;;;;5072536;28;20934;-32
2024/01/12 12:04:51;;;;;;;3.40;1.52;;;;;;;;;;5072845;28;20052;-31
2024/01/12 12:07:19;;;;;;;2.15;1.13;;;21.20;42.90;;;;;;5072534;28;20048;-34
2024/01/12 12:09:47;;;;;;;2.63;1.38;;;;;;;;;;5072719;28;20094;-28
2024/01/12 12:12:14;;;;;;;3.03;1.60;;;;;;;;;;5072663;28;20049;-31
2024/01/12 12:14:55;;;;;;;2.30;1.30;;;;;;;;;;5072200;28;20102;-36
2024/01/12 12:17:25;;;;;;;2.92;1.40;;;21.10;43.10;;;;;;5072334;28;20131;-32
2024/01/12 12:19:52;;;;;;;3.97;1.40;;;;;;;;;;5072557;28;20443;-32
2024/01/12 12:22:19;;;;;;;2.47;1.40;;;21.40;74.10;;;;;;5072334;28;20448;-34
2024/01/12 12:24:46;;;;;;;2.67;1.30;;;;;;;;;;5072117;28;20114;-34
2024/01/12 12:27:14;;;;;;;3.03;1.42;;;;;;;;;;5072027;28;20052;-28
2024/01/12 12:29:41;;;;;;;3.42;1.48;;;21.00;41.30;;;;;;5072373;28;20068;-30
2024/01/12 12:32:11;;;;;;;3.65;1.60;;;;;;;;;;5072169;28;20528;-34
2024/01/12 12:34:40;;;;;;;3.08;1.52;;;20.80;43.20;;;;;;5072141;28;20131;-28
2024/01/12 12:37:08;;;;;;;4.25;1.52;;;20.80;43.10;;;;;;5071316;28;20087;-33
2024/01/12 12:39:36;;;;;;;3.03;1.52;;;;;;;;;;5072192;28;20150;-32
2024/01/12 12:42:03;;;;;;;3.40;1.33;;;;;;;;;;5071984;28;20056;-31
2024/01/12 12:44:31;;;;;;;2.97;1.30;;;;;;;;;;5071790;28;20084;-33
2024/01/12 12:46:59;;;;;;;3.55;1.33;;;;;;;;;;5070705;28;20098;-36
2024/01/12 12:49:31;;;;;;;4.40;1.65;;;;;;;;;;5071785;28;20048;-29
2024/01/12 12:52:00;;;;;;;5.38;1.40;;;20.70;43.20;;;;;;5071810;28;20490;-36
2024/01/12 12:54:29;;;;;;;3.88;1.50;;;;;;;;;;5051827;28;20085;-37
2024/01/12 12:56:56;;;;;;;2.25;1.20;;;;;;;;;;5057225;28;20090;-34
2024/01/12 12:59:24;;;;;;;3.60;1.40;;;;;;;;;;5066539;28;20056;-32
2024/01/12 13:01:51;;;;;;;4.10;1.58;;;;;;;;;;5063531;28;20052;-34
2024/01/12 13:04:18;;;;;;;3.90;1.80;;;;;;;;;;5058653;28;20041;-33
2024/01/12 13:06:45;;;;;;;4.32;1.48;;;;;;;;;;5059208;28;20452;-36
2024/01/12 13:09:14;;;;;;;3.72;1.23;;;;;;;;;;5051583;28;20044;-34
2024/01/12 13:11:41;;;;;;;2.78;1.50;;;;;;;;;;5050945;28;20041;-35
2024/01/12 13:14:08;;;;;;;3.65;1.30;;;;;;;;;;5051227;28;20057;-32
2024/01/12 13:16:36;;;;;;;3.92;1.58;;;;;;;;;;5058981;28;20052;-37
2024/01/12 13:19:04;;;;;;;2.42;1.20;;;;;;;;;;5062346;28;20098;-36
2024/01/12 13:21:31;;;;;;;3.38;1.48;;;;;;;;;;5060205;28;20049;-28
2024/01/12 13:23:59;;;;;;;4.13;1.50;;;;;;;;;;5060871;28;20044;-28
2024/01/12 13:26:29;;;;;;;4.10;1.65;;;;;;;;;;5061809;28;20484;-30
2024/01/12 13:28:56;;;;;;;4.32;2.20;;;;;;;;;;5062156;28;20045;-37
2024/01/12 13:31:23;;;;;;;5.18;1.35;;;;;;;;;;5068770;28;20098;-34
2024/01/12 13:33:50;;;;;;;2.67;1.20;;;;;;;;;;5066557;28;20436;-28
2024/01/12 13:36:17;;;;;;;3.10;1.38;;;;;;;;;;5063253;28;20047;-28
2024/01/12 13:38:44;;;;;;;3.67;1.52;;;;;;;;;;5063296;28;20095;-29
2024/01/12 13:41:12;;;;;;;2.72;1.30;;;;;;;;;;5063226;28;20044;-28
2024/01/12 13:43:40;;;;;;;2.33;1.25;;;19.70;44.10;;;;;;5061424;28;20102;-35
2024/01/12 13:46:08;;;;;;;3.50;1.40;;;19.60;43.90;;;;;;5055402;28;20053;-34
2024/01/12 13:48:35;;;;;;;4.18;1.67;;;;;;;;;;5055355;28;20114;-36
2024/01/12 13:51:02;;;;;;;2.33;1.23;;;;;;;;;;5055178;28;20091;-37
2024/01/12 13:53:30;;;;;;;2.65;1.40;;;;;;;;;;5055471;28;20047;-30
2024/01/12 13:55:57;;;;;;;2.47;1.23;;;;;;;;;;5055062;28;20079;-28
2024/01/12 13:58:24;;;;;;;6.35;1.55;;;;;;;;;;5055155;28;20444;-34
2024/01/12 14:00:53;;;;;;;3.28;1.30;;;;;;;;;;5054700;28;20516;-31
2024/01/12 14:03:20;;;;;;;3.25;1.40;;;;;;;;;;5056815;28;20044;-28
2024/01/12 14:05:48;;;;;;;4.03;1.55;;;;;;;;;;5075024;28;20109;-28
2024/01/12 14:08:15;;;;;;;3.60;1.33;;;;;;;;;;5074972;28;20520;-28
2024/01/12 14:10:42;;;;;;;4.03;1.45;;;;;;;;;;5074784;28;20048;-34
2024/01/12 14:13:09;;;;;;;2.85;1.48;;;;;;;;;;5074878;28;20098;-37
2024/01/12 14:15:37;;;;;;;2.78;1.50;;;;;;;;;;5074533;28;20075;-30
2024/01/12 14:18:05;;;;;;;3.15;1.35;;;19.40;44.80;;;;;;5074490;28;20182;-34
2024/01/12 14:20:35;;;;;;;3.75;1.58;;;;;;;;;;5075162;28;20048;-34
2024/01/12 14:23:02;;;;;;;4.47;1.38;;;;;;;;;;5073315;28;20052;-28